Список аэропортов
Фактическая погода:

19 августа, 04:30
Температура: +15°C (+14.5*)
Ветер: западный 3 м/с
Давление: *760 мм
неб. облачность
150 м
Время (МСК)Темп. СВетерВлажностьДавлениеОблачностьОсадки
03:00+16ЮВ, 2 м/с94%1013 гПаоблачносл. дождь
04:00+16Ю, 2 м/с95%1013 гПаоблачносл. дождь
05:00+16Ю, 2 м/с96%1013 гПаоблачносл. дождь
06:00+16ЮЗ, 2 м/с96%1014 гПаоблачносл. дождь
07:00+16ЮЗ, 2 м/с95%1014 гПаоблачно
08:00+16З, 2 м/с95%1015 гПас прояснениями
09:00+18ЮЗ, 2 м/с90%1015 гПаоблачно
10:00+18ЮЗ, 3 м/с86%1016 гПаоблачно
11:00+18ЮЗ, 4 м/с87%1016 гПаоблачно
12:00+18ЮЗ, 3 м/с85%1016 гПаоблачно
13:00+19ЮЗ, 3 м/с81%1017 гПас прояснениями
14:00+19ЮЗ, 3 м/с81%1017 гПаоблачно
15:00+19ЮЗ, 3 м/с81%1017 гПаоблачно
16:00+20ЮЗ, 3 м/с76%1018 гПас прояснениями
17:00+20ЮЗ, 2 м/с72%1018 гПаясно
18:00+20Ю, 2 м/с74%1018 гПаясно
19:00+20ЮВ, 1 м/с80%1018 гПаясно
20:00+18В, 2 м/с89%1019 гПаясно
21:00+16ЮВ, 1 м/с95%1019 гПаясно
22:00+15ЮВ, 1 м/с97%1020 гПаясно
23:00+14ЮВ, 1 м/с99%1020 гПаясно
20 августа
00:00+14Ю, 1 м/с99%1020 гПас прояснениями
01:00+13Ю, 1 м/с99%1020 гПас прояснениями
02:00+13Ю, 1 м/с99%1021 гПамалооблачно
03:00+13Ю, 2 м/с99%1021 гПамалооблачно
04:00+12Ю, 2 м/с98%1021 гПамалооблачно
05:00+13Ю, 2 м/с97%1021 гПаясно
06:00+13Ю, 2 м/с96%1022 гПаясно
07:00+14Ю, 2 м/с93%1022 гПамалооблачно
08:00+17Ю, 2 м/с85%1022 гПамалооблачно
09:00+20Ю, 3 м/с74%1022 гПаясно
10:00+22Ю, 3 м/с66%1022 гПаясно
11:00+24Ю, 4 м/с60%1022 гПаясно
12:00+25Ю, 4 м/с56%1022 гПаясно
13:00+25Ю, 4 м/с54%1021 гПаясно
14:00+26Ю, 4 м/с54%1021 гПаясно
15:00+26Ю, 4 м/с54%1021 гПаясно
16:00+26Ю, 4 м/с50%1020 гПаясно
17:00+26Ю, 4 м/с50%1020 гПаясно
18:00+25Ю, 3 м/с57%1021 гПамалооблачно
19:00+23Ю, 2 м/с67%1021 гПамалооблачно
20:00+21ЮВ, 2 м/с76%1021 гПамалооблачно
21:00+20Ю, 2 м/с80%1021 гПаясно
22:00+20Ю, 3 м/с82%1021 гПас прояснениями
23:00+19Ю, 3 м/с83%1021 гПас прояснениями
21 августа
00:00+18ЮЗ, 2 м/с87%1021 гПас прояснениями
01:00+17З, 2 м/с94%1022 гПамалооблачно
02:00+17З, 3 м/с96%1022 гПаоблачно
03:00+18СЗ, 3 м/с97%1022 гПаоблачно